»·PEaware :: N900TB KSBA-KMRY

N900TB :: KSBA-KMRY

FLIGHT INFORMATION

Flight Status: Arrived
Operator: Privately registered:
United States
More flights under this callsign
Pilot: Saso K. (7898)
Aircraft: SOCATA TBM-900
(TBM9)
More flights by this aircraft type
Origin: KSBA Santa Barbara Mun
United States
Destination: KMRY Monterey Peninsula
United States
More flights between these airports :: More routes between these airports
Route: +WIGGL
File this flight plan on PilotEdge
Remarks:
Altitude:
(Current/Filed)
22,000ft
Speed:
(Current/Filed)
300kts
Departed: 16-May-18 03:54 PM
Arrived: 16-May-18 04:40 PM
Distance/Time
Traveled:
162nm/0:46
Distance/Time
To Go:
Arrived

Flight Plot

Page will automatically refresh every two minutes.

Flight plan parsing failed; only flown route is shown


Map Options




Map Legend


Flown Route
Filed Route
Departure Airport
Arrival Airport
Navaid (VOR, NDB)
Fix

Horizontal Profiles

Position Reports

Time Latitude Longitude Heading Altitude Ground
Speed
16-May-18 15:32 34.423027 -119.836176 344 10ft 0kts
16-May-18 15:33 34.423027 -119.836176 344 10ft 0kts
16-May-18 15:34 34.423027 -119.836176 344 10ft 0kts
16-May-18 15:35 34.423027 -119.836176 344 10ft 0kts
16-May-18 15:36 34.423027 -119.836176 344 10ft 0kts
16-May-18 15:37 34.423027 -119.836176 344 10ft 0kts
16-May-18 15:38 34.423027 -119.836176 344 10ft 0kts
16-May-18 15:39 34.423027 -119.836176 344 10ft 0kts
16-May-18 15:40 34.423027 -119.836176 344 10ft 0kts
16-May-18 15:41 34.423027 -119.836176 344 10ft 0kts
16-May-18 15:42 34.423027 -119.836176 344 10ft 0kts
16-May-18 15:43 34.423027 -119.836176 344 10ft 0kts
16-May-18 15:44 34.423027 -119.836176 344 10ft 0kts
16-May-18 15:45 34.423027 -119.836176 344 10ft 0kts
16-May-18 15:46 34.423027 -119.836176 344 10ft 0kts
16-May-18 15:47 34.423027 -119.836176 344 10ft 0kts
16-May-18 15:48 34.422873 -119.836623 230 10ft 5kts
16-May-18 15:49 34.422707 -119.836887 249 11ft 0kts
16-May-18 15:50 34.423219 -119.837334 355 11ft 10kts
16-May-18 15:51 34.426708 -119.837856 87 10ft 11kts
16-May-18 15:52 34.427072 -119.835234 358 10ft 1kts
16-May-18 15:53 34.427893 -119.835365 267 10ft 0kts
16-May-18 15:54 34.428538 -119.865322 274 1253ft 133kts
16-May-18 15:55 34.426472 -119.913579 267 3374ft 158kts
16-May-18 15:56 34.425451 -119.959152 268 6166ft 125kts
16-May-18 15:57 34.424595 -120.003966 267 8074ft 171kts
16-May-18 15:58 34.423515 -120.062140 267 10552ft 149kts
16-May-18 15:59 34.422611 -120.108230 266 13134ft 139kts
16-May-18 16:00 34.421719 -120.154092 266 15796ft 137kts
16-May-18 16:01 34.447058 -120.187680 320 18294ft 161kts
16-May-18 16:02 34.488040 -120.211873 320 20619ft 169kts
16-May-18 16:03 34.532803 -120.238037 322 22135ft 218kts
16-May-18 16:04 34.593964 -120.278077 312 22118ft 266kts
16-May-18 16:05 34.653881 -120.334481 313 22114ft 280kts
16-May-18 16:06 34.715370 -120.392305 313 22120ft 284kts
16-May-18 16:07 34.783148 -120.442762 321 22129ft 290kts
16-May-18 16:08 34.852826 -120.489643 321 22134ft 289kts
16-May-18 16:09 34.922593 -120.536596 322 22136ft 293kts
16-May-18 16:10 34.993306 -120.584258 322 22134ft 295kts
16-May-18 16:11 35.065015 -120.632673 323 22129ft 298kts
16-May-18 16:12 35.104509 -120.659378 322 22134ft 299kts
16-May-18 16:13 35.145524 -120.687142 322 22129ft 298kts
16-May-18 16:14 35.205541 -120.727811 322 22129ft 297kts
16-May-18 16:15 35.269102 -120.785892 300 22136ft 281kts
16-May-18 16:16 35.317330 -120.861224 300 22128ft 282kts
16-May-18 16:17 35.365278 -120.936367 300 22127ft 282kts
16-May-18 16:18 35.413200 -121.011658 301 22117ft 281kts
16-May-18 16:19 35.476614 -121.063845 340 22113ft 302kts
16-May-18 16:20 35.556639 -121.087760 338 22090ft 299kts
16-May-18 16:21 35.638138 -121.113311 339 20909ft 314kts
16-May-18 16:22 35.721664 -121.138463 340 19452ft 317kts
16-May-18 16:23 35.803551 -121.164097 341 17993ft 308kts
16-May-18 16:24 35.883976 -121.189581 341 16449ft 298kts
16-May-18 16:25 35.962379 -121.214481 342 14857ft 294kts
16-May-18 16:26 36.038808 -121.238823 342 13344ft 291kts
16-May-18 16:27 36.114613 -121.263008 343 11864ft 284kts
16-May-18 16:28 36.185142 -121.285504 343 10706ft 275kts
16-May-18 16:29 36.254703 -121.307812 342 9966ft 268kts
16-May-18 16:30 36.323959 -121.326222 343 9144ft 257kts
16-May-18 16:31 36.390400 -121.349893 340 7966ft 259kts
16-May-18 16:32 36.439523 -121.402441 292 7054ft 243kts
16-May-18 16:33 36.463138 -121.478266 290 6277ft 241kts
16-May-18 16:34 36.488305 -121.553463 295 5326ft 237kts
16-May-18 16:35 36.512182 -121.623375 291 4389ft 208kts
16-May-18 16:36 36.531453 -121.680750 290 3520ft 169kts
16-May-18 16:37 36.549663 -121.734490 290 2436ft 170kts
16-May-18 16:38 36.566095 -121.781708 289 1544ft 140kts
16-May-18 16:39 36.577834 -121.816924 287 717ft 100kts
16-May-18 16:40 36.586165 -121.841866 293 219ft 40kts
16-May-18 16:41 36.586885 -121.846078 202 192ft 0kts
16-May-18 16:42 36.586868 -121.846507 285 192ft 8kts

Navigation Log

Ident Type
Flight plan parsing failed, navigation log unavailable